createdAt,value
2019-05-15T00:00:44.292Z,10.10
2019-05-15T00:03:32.205Z,10.10
2019-05-15T00:06:04.144Z,10.10
2019-05-15T00:08:39.933Z,10.00
2019-05-15T00:11:13.656Z,9.90
2019-05-15T00:13:48.339Z,9.90
2019-05-15T00:16:21.219Z,9.90
2019-05-15T00:18:52.952Z,10.00
2019-05-15T00:21:25.376Z,9.90
2019-05-15T00:23:58.672Z,9.80
2019-05-15T00:26:32.385Z,9.80
2019-05-15T00:29:12.755Z,9.70
2019-05-15T00:31:42.467Z,9.70
2019-05-15T00:34:18.202Z,9.70
2019-05-15T00:36:48.939Z,9.60
2019-05-15T00:39:19.743Z,9.60
2019-05-15T00:41:54.778Z,9.60
2019-05-15T00:44:24.018Z,9.60
2019-05-15T00:46:58.098Z,9.60
2019-05-15T00:49:28.961Z,9.50
2019-05-15T00:52:00.655Z,9.50
2019-05-15T00:54:34.096Z,9.50
2019-05-15T00:57:04.923Z,9.40
2019-05-15T00:59:35.518Z,9.40
2019-05-15T01:02:09.626Z,9.40
2019-05-15T01:04:42.448Z,9.40
2019-05-15T01:07:31.882Z,9.30
2019-05-15T01:10:03.359Z,9.30
2019-05-15T01:12:37.888Z,9.20
2019-05-15T01:15:11.060Z,9.20
2019-05-15T01:17:44.483Z,9.20
2019-05-15T01:20:14.597Z,9.20
2019-05-15T01:22:48.359Z,9.10
2019-05-15T01:25:18.730Z,9.10
2019-05-15T01:27:50.654Z,9.00
2019-05-15T01:30:20.639Z,9.00
2019-05-15T01:32:51.571Z,9.00
2019-05-15T01:35:21.533Z,8.90
2019-05-15T01:37:51.408Z,8.90
2019-05-15T01:40:21.646Z,8.90
2019-05-15T01:42:52.564Z,8.90
2019-05-15T01:45:22.835Z,8.80
2019-05-15T01:47:52.740Z,8.80
2019-05-15T01:50:22.655Z,8.80
2019-05-15T01:52:52.602Z,8.80
2019-05-15T01:55:22.629Z,8.70
2019-05-15T01:57:52.556Z,8.70
2019-05-15T02:00:24.675Z,8.70
2019-05-15T02:02:54.596Z,8.70
2019-05-15T02:05:24.939Z,8.60
2019-05-15T02:07:55.683Z,8.60
2019-05-15T02:10:26.366Z,8.60
2019-05-15T02:12:58.785Z,8.50
2019-05-15T02:15:28.713Z,8.40
2019-05-15T02:18:00.050Z,8.40
2019-05-15T02:20:31.877Z,8.40
2019-05-15T02:23:01.823Z,8.30
2019-05-15T02:25:32.652Z,8.30
2019-05-15T02:28:02.627Z,8.30
2019-05-15T02:30:34.397Z,8.30
2019-05-15T02:33:10.071Z,8.20
2019-05-15T02:35:39.832Z,8.20
2019-05-15T02:38:14.696Z,8.20
2019-05-15T02:40:41.710Z,8.20
2019-05-15T02:43:11.736Z,8.20
2019-05-15T02:45:42.568Z,8.10
2019-05-15T02:48:13.284Z,8.20
2019-05-15T02:50:43.159Z,8.20
2019-05-15T02:53:15.419Z,8.10
2019-05-15T02:55:45.588Z,8.10
2019-05-15T02:58:21.413Z,8.10
2019-05-15T03:00:53.423Z,8.10
2019-05-15T03:03:22.055Z,8.10
2019-05-15T03:05:52.072Z,8.10
2019-05-15T03:08:21.920Z,8.10
2019-05-15T03:10:51.821Z,8.00
2019-05-15T03:13:22.835Z,8.10
2019-05-15T03:15:52.759Z,8.00
2019-05-15T03:18:22.710Z,8.00
2019-05-15T03:20:52.585Z,8.00
2019-05-15T03:23:24.319Z,8.00
2019-05-15T03:25:54.605Z,8.00
2019-05-15T03:28:24.550Z,8.00
2019-05-15T03:31:18.351Z,7.90
2019-05-15T03:33:35.630Z,7.90
2019-05-15T03:36:02.898Z,7.90
2019-05-15T03:38:31.941Z,7.90
2019-05-15T03:41:02.714Z,7.90
2019-05-15T03:43:34.021Z,7.90
2019-05-15T03:46:04.775Z,7.90
2019-05-15T03:48:34.740Z,7.80
2019-05-15T03:51:04.599Z,7.80
2019-05-15T03:53:35.519Z,7.80
2019-05-15T03:56:05.797Z,7.80
2019-05-15T03:58:39.720Z,7.80
2019-05-15T04:01:27.766Z,7.70
2019-05-15T04:03:41.902Z,7.70
2019-05-15T04:06:11.985Z,7.70
2019-05-15T04:08:43.487Z,7.70
2019-05-15T04:11:13.531Z,7.70
2019-05-15T04:13:44.055Z,7.70
2019-05-15T04:16:14.225Z,7.70
2019-05-15T04:18:44.165Z,7.70
2019-05-15T04:21:15.193Z,7.70
2019-05-15T04:23:49.697Z,7.70
2019-05-15T04:26:19.893Z,7.70
2019-05-15T04:28:51.230Z,7.70
2019-05-15T04:31:22.857Z,7.70
2019-05-15T04:33:53.810Z,7.80
2019-05-15T04:36:24.526Z,7.80
2019-05-15T04:38:58.636Z,7.80
2019-05-15T04:41:29.892Z,7.80
2019-05-15T04:43:59.810Z,7.80
2019-05-15T04:46:30.786Z,7.80
2019-05-15T04:49:00.765Z,7.80
2019-05-15T04:51:30.739Z,7.80
2019-05-15T04:54:01.610Z,7.80
2019-05-15T04:56:31.446Z,7.90
2019-05-15T04:59:01.483Z,7.90
2019-05-15T05:01:31.310Z,7.90
2019-05-15T05:04:01.801Z,7.90
2019-05-15T05:06:38.482Z,8.00
2019-05-15T05:09:10.076Z,8.00
2019-05-15T05:11:40.056Z,8.00
2019-05-15T05:14:09.899Z,8.00
2019-05-15T05:16:39.726Z,8.10
2019-05-15T05:19:10.383Z,8.00
2019-05-15T05:21:40.185Z,8.10
2019-05-15T05:24:09.926Z,8.20
2019-05-15T05:26:39.647Z,8.20
2019-05-15T05:29:09.244Z,8.30
2019-05-15T05:31:39.359Z,8.30
2019-05-15T05:34:09.346Z,8.40
2019-05-15T05:36:42.191Z,8.50
2019-05-15T05:39:15.347Z,8.60
2019-05-15T05:41:44.219Z,8.80
2019-05-15T05:44:14.013Z,8.90
2019-05-15T05:46:45.225Z,9.10
2019-05-15T05:49:20.141Z,9.40
2019-05-15T05:51:54.983Z,9.60
2019-05-15T05:54:31.822Z,9.90
2019-05-15T05:57:14.415Z,10.20
2019-05-15T05:59:49.010Z,10.50
2019-05-15T06:02:22.793Z,10.70
2019-05-15T06:04:53.553Z,11.00
2019-05-15T06:07:29.266Z,11.30
2019-05-15T06:33:38.471Z,14.10
2019-05-15T06:36:20.607Z,14.30
2019-05-15T06:52:58.797Z,16.00
2019-05-15T06:55:28.929Z,16.00
2019-05-15T06:57:58.688Z,16.20
2019-05-15T07:00:29.412Z,16.50
2019-05-15T07:03:16.894Z,16.40
2019-05-15T07:05:38.361Z,16.60
2019-05-15T07:08:09.082Z,16.50
2019-05-15T07:10:38.845Z,16.50
2019-05-15T07:13:08.927Z,16.60
2019-05-15T07:15:38.666Z,16.70
2019-05-15T07:18:09.005Z,17.00
2019-05-15T07:20:39.192Z,17.20
2019-05-15T07:23:18.614Z,17.40
2019-05-15T07:25:50.346Z,17.60
2019-05-15T07:28:20.239Z,17.70
2019-05-15T07:30:50.046Z,17.60
2019-05-15T07:33:35.359Z,18.00
2019-05-15T07:35:51.630Z,18.00
2019-05-15T07:38:21.403Z,18.30
2019-05-15T07:40:59.283Z,18.40
2019-05-15T07:43:22.686Z,18.40
2019-05-15T07:45:55.276Z,18.60
2019-05-15T07:48:24.000Z,18.60
2019-05-15T07:50:53.760Z,18.80
2019-05-15T07:53:23.481Z,18.90
2019-05-15T07:55:54.445Z,19.20
2019-05-15T07:58:24.158Z,19.20
2019-05-15T08:00:54.000Z,19.40
2019-05-15T08:03:23.895Z,19.40
2019-05-15T08:09:48.637Z,19.50
2019-05-15T08:12:19.310Z,19.40
2019-05-15T08:14:50.876Z,19.10
2019-05-15T08:17:21.958Z,18.90
2019-05-15T08:19:52.010Z,18.70
2019-05-15T08:22:21.731Z,18.70
2019-05-15T08:24:51.670Z,18.70
2019-05-15T08:27:23.686Z,18.80
2019-05-15T08:29:52.837Z,18.70
2019-05-15T08:32:24.917Z,18.90
2019-05-15T08:34:55.145Z,18.80
2019-05-15T08:37:25.703Z,18.70
2019-05-15T08:39:55.571Z,18.70
2019-05-15T08:42:27.986Z,18.80
2019-05-15T08:44:58.341Z,18.90
2019-05-15T08:47:29.705Z,19.10
2019-05-15T08:49:59.846Z,19.20
2019-05-15T08:52:29.578Z,19.40
2019-05-15T08:54:59.347Z,19.30
2019-05-15T08:57:29.187Z,19.10
2019-05-15T08:59:58.942Z,19.20
2019-05-15T09:02:28.944Z,19.20
2019-05-15T09:04:58.853Z,19.20
2019-05-15T09:07:28.822Z,19.20
2019-05-15T09:09:58.617Z,19.30
2019-05-15T09:12:29.456Z,19.10
2019-05-15T09:14:59.420Z,19.30
2019-05-15T09:17:29.219Z,19.30
2019-05-15T09:19:58.945Z,19.20
2019-05-15T09:22:29.273Z,19.10
2019-05-15T09:24:59.262Z,18.70
2019-05-15T09:27:29.031Z,19.00
2019-05-15T09:29:59.290Z,18.90
2019-05-15T09:32:29.004Z,19.00
2019-05-15T09:34:59.416Z,19.10
2019-05-15T09:37:29.511Z,19.30
2019-05-15T09:39:59.242Z,19.60
2019-05-15T09:42:28.968Z,19.50
2019-05-15T09:44:59.553Z,19.40
2019-05-15T09:47:30.110Z,19.40
2019-05-15T09:49:59.756Z,19.20
2019-05-15T09:52:30.195Z,19.10
2019-05-15T09:55:38.709Z,19.40
2019-05-15T10:10:49.002Z,20.00
2019-05-15T10:22:42.147Z,19.90
2019-05-15T10:25:12.110Z,19.60
2019-05-15T10:28:04.073Z,19.70
2019-05-15T10:31:06.086Z,19.50
2019-05-15T10:42:39.867Z,18.80
2019-05-15T10:45:42.324Z,18.70
2019-05-15T10:51:23.851Z,18.80
2019-05-15T10:53:56.003Z,18.80
2019-05-15T10:56:28.974Z,18.90
2019-05-15T11:01:48.511Z,18.90
2019-05-15T11:04:28.821Z,18.60
2019-05-15T11:07:04.972Z,18.20
2019-05-15T11:09:42.828Z,18.30
2019-05-15T11:12:18.915Z,18.30
2019-05-15T11:14:49.766Z,18.40
2019-05-15T11:17:19.597Z,18.40
2019-05-15T11:19:49.969Z,18.50
2019-05-15T11:22:23.661Z,18.60
2019-05-15T11:24:53.656Z,18.50
2019-05-15T11:27:24.931Z,18.50
2019-05-15T11:29:54.681Z,18.40
2019-05-15T11:32:24.419Z,18.40
2019-05-15T11:34:54.284Z,18.30
2019-05-15T11:37:24.883Z,18.00
2019-05-15T11:39:54.896Z,17.90
2019-05-15T11:42:24.707Z,18.00
2019-05-15T11:44:54.514Z,18.00
2019-05-15T11:47:24.538Z,17.90
2019-05-15T11:49:54.367Z,18.00
2019-05-15T11:52:24.305Z,18.10
2019-05-15T11:54:54.129Z,18.20
2019-05-15T11:57:37.174Z,18.20
2019-05-15T11:59:59.461Z,18.40
2019-05-15T12:02:29.313Z,18.40
2019-05-15T12:04:59.091Z,18.50
2019-05-15T12:07:29.165Z,18.50
2019-05-15T12:09:59.025Z,18.60
2019-05-15T12:12:31.902Z,18.50
2019-05-15T12:15:00.209Z,18.50
2019-05-15T12:17:30.098Z,18.50
2019-05-15T12:20:05.657Z,18.30
2019-05-15T12:22:31.387Z,18.40
2019-05-15T12:25:01.811Z,18.50
2019-05-15T12:27:31.829Z,18.30
2019-05-15T12:30:03.121Z,18.30
2019-05-15T12:32:36.695Z,18.30
2019-05-15T12:35:07.017Z,18.50
2019-05-15T12:37:39.747Z,18.70
2019-05-15T13:00:29.649Z,18.80
2019-05-15T13:02:59.236Z,18.90
2019-05-15T13:05:32.353Z,18.90
2019-05-15T13:11:00.178Z,19.10
2019-05-15T13:13:31.798Z,19.10
2019-05-15T13:16:01.602Z,19.10
2019-05-15T13:18:33.914Z,19.10
2019-05-15T13:21:03.456Z,19.20
2019-05-15T13:23:33.288Z,19.10
2019-05-15T13:26:03.221Z,19.10
2019-05-15T13:28:32.942Z,18.90
2019-05-15T13:31:02.827Z,18.90
2019-05-15T13:33:32.562Z,18.90
2019-05-15T13:36:28.672Z,19.10
2019-05-15T15:34:52.811Z,18.70
2019-05-15T15:37:23.091Z,18.80
2019-05-15T15:39:53.033Z,18.90
2019-05-15T15:42:31.381Z,19.00
2019-05-15T15:45:03.619Z,19.10
2019-05-15T15:47:33.897Z,19.00
2019-05-15T15:50:11.755Z,18.90
2019-05-15T15:52:44.737Z,18.90
2019-05-15T15:55:15.361Z,19.00
2019-05-15T15:57:48.692Z,19.00
2019-05-15T16:00:18.941Z,19.10
2019-05-15T16:17:41.880Z,18.70
2019-05-15T16:20:12.483Z,18.80
2019-05-15T16:22:44.663Z,18.70
2019-05-15T16:25:14.762Z,18.70
2019-05-15T16:27:49.402Z,18.70
2019-05-15T16:33:30.857Z,18.70
2019-05-15T16:36:02.638Z,18.50
2019-05-15T16:38:45.509Z,18.40
2019-05-15T16:41:19.863Z,18.50
2019-05-15T16:43:54.304Z,18.50
2019-05-15T16:49:22.944Z,18.50
2019-05-15T16:52:01.253Z,18.50
2019-05-15T16:54:41.298Z,18.60
2019-05-15T16:57:14.717Z,18.60
2019-05-15T16:59:47.883Z,18.50
2019-05-15T17:02:18.806Z,18.50
2019-05-15T17:04:54.417Z,18.30
2019-05-15T17:07:24.738Z,18.30
2019-05-15T17:09:54.494Z,18.30
2019-05-15T17:12:24.383Z,18.20
2019-05-15T17:14:54.178Z,18.20
2019-05-15T17:17:24.161Z,18.20
2019-05-15T17:19:54.002Z,18.00
2019-05-15T17:22:24.122Z,17.90
2019-05-15T17:24:54.534Z,17.80
2019-05-15T17:27:24.270Z,17.80
2019-05-15T17:29:54.136Z,17.70
2019-05-15T18:02:19.004Z,17.20
2019-05-15T18:04:48.925Z,17.20
2019-05-15T18:07:18.787Z,17.10
2019-05-15T18:09:54.056Z,17.00
2019-05-15T18:12:20.398Z,17.00
2019-05-15T18:14:50.270Z,17.00
2019-05-15T18:17:20.769Z,16.90
2019-05-15T18:19:50.524Z,16.90
2019-05-15T18:22:20.377Z,16.80
2019-05-15T18:24:50.480Z,16.70
2019-05-15T18:27:20.503Z,16.70
2019-05-15T18:29:50.336Z,16.60
2019-05-15T18:32:20.260Z,16.60
2019-05-15T18:34:50.066Z,16.50
2019-05-15T18:37:19.697Z,16.40
2019-05-15T18:40:01.201Z,16.30
2019-05-15T18:42:21.342Z,16.30
2019-05-15T18:44:53.223Z,16.20
2019-05-15T18:47:23.669Z,16.20
2019-05-15T18:50:05.347Z,16.10
2019-05-15T18:52:24.913Z,16.00
2019-05-15T18:54:58.295Z,16.00
2019-05-15T18:57:27.396Z,15.90
2019-05-15T18:59:58.057Z,15.80
2019-05-15T19:02:28.240Z,15.70
2019-05-15T19:04:58.749Z,15.70
2019-05-15T19:07:28.742Z,15.60
2019-05-15T19:09:58.633Z,15.60
2019-05-15T19:12:28.429Z,15.50
2019-05-15T19:14:58.793Z,15.50
2019-05-15T19:17:30.355Z,15.40
2019-05-15T19:20:00.225Z,15.30
2019-05-15T19:22:30.755Z,15.30
2019-05-15T19:25:00.514Z,15.20
2019-05-15T19:27:30.219Z,15.10
2019-05-15T19:30:00.039Z,15.10
2019-05-15T19:32:30.761Z,14.90
2019-05-15T19:35:00.528Z,14.80
2019-05-15T19:50:58.269Z,14.50
2019-05-15T20:37:58.128Z,13.30
2019-05-15T20:40:39.278Z,13.20
2019-05-15T20:43:08.921Z,13.20
2019-05-15T20:45:38.661Z,13.10
2019-05-15T20:48:08.988Z,13.00
2019-05-15T20:50:40.108Z,13.00
